Time;durP1;ratioP1;P1;durP2;ratioP2;P2;SDS_P1;SDS_P2;PMS_P1;PMS_P2;Temp;Humidity;BMP_temperature;BMP_pressure;BME280_temperature;BME280_humidity;BME280_pressure;Samples;Min_cycle;Max_cycle;Signal;HPM_P1;HPM_P2
2022/09/16 00:02:19;;;;;;;6.40;2.90;;;13.30;99.90;;;;;;5052758;28;20495;-75
2022/09/16 00:04:47;;;;;;;4.00;2.50;;;13.30;99.90;;;;;;5052820;28;20997;-76
2022/09/16 00:07:14;;;;;;;5.40;2.10;;;13.20;99.90;;;;;;5052496;28;20456;-75
2022/09/16 00:09:41;;;;;;;5.03;2.57;;;13.20;99.90;;;;;;5044786;28;20532;-75
2022/09/16 00:12:07;;;;;;;5.37;2.50;;;13.20;99.90;;;;;;5052915;28;20458;-75
2022/09/16 00:14:34;;;;;;;6.13;2.83;;;13.10;99.90;;;;;;5052605;28;20490;-75
2022/09/16 00:17:01;;;;;;;8.10;2.53;;;13.10;99.90;;;;;;5052127;28;20798;-76
2022/09/16 00:19:27;;;;;;;4.03;2.47;;;13.20;99.90;;;;;;5052553;28;20452;-75
2022/09/16 00:21:55;;;;;;;8.80;2.70;;;13.10;99.90;;;;;;5052611;28;21010;-74
2022/09/16 00:24:22;;;;;;;3.80;2.80;;;13.10;99.90;;;;;;5052226;28;20499;-75
2022/09/16 00:26:48;;;;;;;11.00;2.80;;;13.20;99.90;;;;;;5052234;28;21022;-74
2022/09/16 00:29:15;;;;;;;7.10;2.63;;;13.10;99.90;;;;;;5052389;28;20484;-75
2022/09/16 00:31:41;;;;;;;3.90;2.40;;;13.10;99.90;;;;;;5052322;28;20510;-75
2022/09/16 00:34:08;;;;;;;7.80;3.17;;;13.10;99.90;;;;;;5052307;28;20473;-75
2022/09/16 00:36:35;;;;;;;3.70;2.67;;;13.10;99.90;;;;;;5051968;28;20529;-75
2022/09/16 00:39:03;;;;;;;12.33;2.63;;;13.10;99.90;;;;;;5051965;28;20447;-75
2022/09/16 00:41:32;;;;;;;4.40;2.70;;;13.10;99.90;;;;;;5051813;28;20449;-75
2022/09/16 00:44:01;;;;;;;6.50;2.67;;;13.10;99.90;;;;;;5051694;28;20484;-75
2022/09/16 00:46:34;;;;;;;10.97;2.47;;;13.10;99.90;;;;;;5051925;28;20457;-75
2022/09/16 00:49:04;;;;;;;7.63;2.30;;;13.10;99.90;;;;;;5051701;28;20840;-75
2022/09/16 00:51:31;;;;;;;8.20;3.27;;;13.10;99.90;;;;;;5051854;28;20945;-75
2022/09/16 00:54:02;;;;;;;5.43;2.53;;;13.10;99.90;;;;;;5051611;28;20477;-75
2022/09/16 00:56:35;;;;;;;9.23;2.53;;;13.10;99.90;;;;;;5051486;28;20508;-75
2022/09/16 00:59:07;;;;;;;4.80;2.63;;;13.10;99.90;;;;;;5051644;28;20868;-75
2022/09/16 01:01:34;;;;;;;6.13;2.43;;;13.00;99.90;;;;;;5051941;28;20461;-75
2022/09/16 01:04:05;;;;;;;7.87;2.90;;;13.00;99.90;;;;;;5051331;28;20900;-75
2022/09/16 01:06:37;;;;;;;5.97;2.50;;;13.00;99.90;;;;;;5051387;28;20511;-75
2022/09/16 01:09:04;;;;;;;4.20;2.50;;;13.00;99.90;;;;;;5051493;28;21094;-74
2022/09/16 01:11:32;;;;;;;7.47;2.33;;;12.90;99.90;;;;;;5051834;28;20452;-75
2022/09/16 01:16:45;;;;;;;5.77;2.47;;;12.90;99.90;;;;;;5050903;28;20434;-75
2022/09/16 01:19:26;;;;;;;10.93;2.90;;;12.90;99.90;;;;;;5051747;28;20453;-75
2022/09/16 01:22:07;;;;;;;3.63;2.20;;;12.90;99.90;;;;;;5051467;28;20444;-75
2022/09/16 01:24:53;;;;;;;9.80;2.87;;;13.00;99.90;;;;;;5051173;28;21054;-75
2022/09/16 01:27:51;;;;;;;4.53;2.57;;;13.00;99.90;;;;;;5051290;28;20455;-75
2022/09/16 01:30:33;;;;;;;4.20;2.43;;;13.00;99.90;;;;;;5051483;28;20481;-75
2022/09/16 01:33:04;;;;;;;7.27;2.53;;;13.00;99.90;;;;;;5050940;28;20538;-74
2022/09/16 01:35:58;;;;;;;4.73;2.60;;;13.00;99.90;;;;;;5051569;28;20820;-75
2022/09/16 01:38:35;;;;;;;5.30;2.20;;;13.00;99.90;;;;;;5051358;28;20448;-75
2022/09/16 01:41:09;;;;;;;5.70;2.20;;;13.00;99.90;;;;;;5051243;28;20546;-74
2022/09/16 01:43:49;;;;;;;9.43;2.70;;;13.00;99.90;;;;;;5050836;28;20495;-75
2022/09/16 01:46:22;;;;;;;4.30;2.03;;;13.00;99.90;;;;;;5050768;28;20829;-75
2022/09/16 01:48:55;;;;;;;6.30;2.30;;;13.00;99.90;;;;;;5050942;28;21066;-76
2022/09/16 01:51:28;;;;;;;5.47;2.60;;;13.00;99.90;;;;;;5051391;28;20452;-75
2022/09/16 01:54:03;;;;;;;9.33;2.43;;;13.00;99.90;;;;;;5050668;28;20479;-75
2022/09/16 01:56:37;;;;;;;4.53;2.37;;;13.00;99.90;;;;;;5051163;28;20452;-75
2022/09/16 01:59:09;;;;;;;6.40;2.50;;;13.00;99.90;;;;;;5050835;28;20449;-75
2022/09/16 02:01:42;;;;;;;5.90;2.50;;;13.00;99.90;;;;;;5050967;28;20463;-75
2022/09/16 02:04:13;;;;;;;3.20;2.53;;;13.00;99.90;;;;;;5050729;28;20473;-75
2022/09/16 02:06:44;;;;;;;7.23;2.87;;;13.00;99.90;;;;;;5050835;28;20468;-75
2022/09/16 02:09:14;;;;;;;6.83;2.70;;;13.00;99.90;;;;;;5053782;28;20495;-75
2022/09/16 02:11:44;;;;;;;8.50;2.47;;;13.00;99.90;;;;;;5055328;28;20504;-75
2022/09/16 02:14:15;;;;;;;6.80;2.40;;;13.00;99.90;;;;;;5054663;28;20477;-74
2022/09/16 02:16:46;;;;;;;4.27;2.20;;;13.00;99.90;;;;;;5054726;28;20452;-75
2022/09/16 02:19:19;;;;;;;8.70;2.60;;;12.90;99.90;;;;;;5054580;28;20798;-75
2022/09/16 02:21:47;;;;;;;2.83;2.03;;;12.90;99.90;;;;;;5054941;28;21011;-75
2022/09/16 02:24:18;;;;;;;3.67;2.20;;;12.90;99.90;;;;;;5054299;28;21802;-75
2022/09/16 02:26:51;;;;;;;3.47;2.10;;;12.90;99.90;;;;;;5054664;28;20453;-74
2022/09/16 02:29:24;;;;;;;5.27;2.70;;;12.90;99.90;;;;;;5054431;28;20491;-75
2022/09/16 02:31:55;;;;;;;4.07;2.20;;;12.80;99.90;;;;;;5054796;28;20499;-74
2022/09/16 02:34:26;;;;;;;9.90;2.30;;;12.80;99.90;;;;;;5046562;28;20471;-74
2022/09/16 02:36:58;;;;;;;7.20;2.13;;;12.80;99.90;;;;;;5054496;28;20542;-75
2022/09/16 02:39:29;;;;;;;5.53;2.17;;;12.80;99.90;;;;;;5054124;28;20441;-75
2022/09/16 02:41:56;;;;;;;6.93;2.73;;;12.80;99.90;;;;;;5053878;28;20836;-76
2022/09/16 02:47:54;;;;;;;7.77;2.30;;;12.80;99.90;;;;;;5054746;28;20427;-74
2022/09/16 02:50:28;;;;;;;4.70;2.13;;;12.80;99.90;;;;;;5054237;28;20486;-75
2022/09/16 02:53:00;;;;;;;5.33;2.23;;;12.80;99.90;;;;;;5054077;28;21050;-75
2022/09/16 02:55:38;;;;;;;7.67;2.73;;;12.90;99.90;;;;;;5053817;28;20453;-75
2022/09/16 02:58:05;;;;;;;4.40;2.40;;;12.80;99.90;;;;;;5054058;28;20482;-75
2022/09/16 03:00:35;;;;;;;18.50;2.80;;;12.80;99.90;;;;;;5053900;28;20444;-75
2022/09/16 03:03:04;;;;;;;5.33;1.90;;;12.80;99.90;;;;;;5054181;28;20484;-75
2022/09/16 03:05:31;;;;;;;7.20;2.57;;;12.80;99.90;;;;;;5054774;28;20874;-75
2022/09/16 03:08:00;;;;;;;7.47;2.40;;;12.80;99.90;;;;;;5054292;28;20480;-75
2022/09/16 03:10:33;;;;;;;4.70;2.30;;;12.80;99.90;;;;;;5053467;28;20483;-75
2022/09/16 03:13:09;;;;;;;13.60;2.67;;;12.80;99.90;;;;;;5053747;28;20822;-75
2022/09/16 03:16:01;;;;;;;5.73;2.33;;;12.80;99.90;;;;;;5053751;28;20517;-74
2022/09/16 03:18:51;;;;;;;12.10;2.83;;;12.70;99.90;;;;;;5053524;28;20451;-75
2022/09/16 03:21:24;;;;;;;19.40;3.07;;;12.70;99.90;;;;;;5053678;28;21024;-75
2022/09/16 03:24:01;;;;;;;5.80;2.50;;;12.60;99.90;;;;;;5053270;28;20526;-74
2022/09/16 03:26:36;;;;;;;8.53;2.73;;;12.60;99.90;;;;;;5053474;28;20451;-74
2022/09/16 03:29:11;;;;;;;2.90;2.17;;;12.60;99.90;;;;;;5053872;28;20510;-74
2022/09/16 03:31:55;;;;;;;7.53;2.30;;;12.60;99.90;;;;;;5046270;28;20491;-74
2022/09/16 03:34:27;;;;;;;10.93;2.27;;;12.50;99.90;;;;;;5053344;28;20476;-74
2022/09/16 03:36:59;;;;;;;5.47;2.20;;;12.50;99.90;;;;;;5053397;28;20456;-75
2022/09/16 03:39:25;;;;;;;5.40;2.50;;;12.40;99.90;;;;;;5053346;28;20458;-75
2022/09/16 03:41:54;;;;;;;6.83;2.47;;;12.50;99.90;;;;;;5053563;28;20456;-74
2022/09/16 03:44:21;;;;;;;4.47;2.50;;;12.40;99.90;;;;;;5052868;28;20502;-73
2022/09/16 03:46:47;;;;;;;2.67;2.07;;;12.40;99.90;;;;;;5053195;28;20457;-73
2022/09/16 03:49:14;;;;;;;5.80;2.30;;;12.40;99.90;;;;;;5053047;28;20501;-76
2022/09/16 03:51:42;;;;;;;2.53;2.10;;;12.40;99.90;;;;;;5053457;28;20734;-75
2022/09/16 03:54:09;;;;;;;5.10;2.50;;;12.40;99.90;;;;;;5053210;28;20472;-72
2022/09/16 03:56:36;;;;;;;4.77;2.30;;;12.40;99.90;;;;;;5052875;28;20457;-73
2022/09/16 03:59:02;;;;;;;6.37;2.70;;;12.40;99.90;;;;;;5052795;28;20455;-73
2022/09/16 04:01:29;;;;;;;6.70;2.40;;;12.40;99.90;;;;;;5052731;28;20484;-73
2022/09/16 04:03:56;;;;;;;4.43;2.00;;;12.30;99.90;;;;;;5053056;28;20478;-73
2022/09/16 04:06:23;;;;;;;11.70;2.70;;;12.30;99.90;;;;;;5052152;28;20875;-73
2022/09/16 04:08:52;;;;;;;3.43;2.17;;;12.30;99.90;;;;;;5052605;28;20458;-74
2022/09/16 04:11:19;;;;;;;10.77;2.17;;;12.30;99.90;;;;;;5044666;28;20520;-75
2022/09/16 04:13:45;;;;;;;4.47;2.30;;;12.30;99.90;;;;;;5052928;28;20537;-75
2022/09/16 04:16:12;;;;;;;8.13;2.47;;;12.20;99.90;;;;;;5052536;28;20848;-74
2022/09/16 04:18:38;;;;;;;5.93;2.43;;;12.20;99.90;;;;;;5052846;28;20498;-74
2022/09/16 04:21:05;;;;;;;4.80;2.00;;;12.20;99.90;;;;;;5052461;28;20510;-74
2022/09/16 04:23:32;;;;;;;7.20;2.73;;;12.20;99.90;;;;;;5052574;28;20471;-74
2022/09/16 04:26:02;;;;;;;8.60;2.80;;;12.20;99.90;;;;;;5051982;28;20501;-74
2022/09/16 04:28:30;;;;;;;4.33;2.33;;;12.20;99.90;;;;;;5052607;28;20446;-75
2022/09/16 04:31:01;;;;;;;8.57;2.30;;;12.20;99.90;;;;;;5051567;28;20491;-75
2022/09/16 04:33:28;;;;;;;7.90;2.60;;;12.10;99.90;;;;;;5045134;28;20548;-75
2022/09/16 04:36:01;;;;;;;15.00;2.70;;;12.10;99.90;;;;;;5052042;28;20453;-75
2022/09/16 04:38:28;;;;;;;5.60;2.63;;;12.10;99.90;;;;;;5051318;28;20452;-75
2022/09/16 04:41:01;;;;;;;5.30;2.33;;;12.10;99.90;;;;;;5048522;28;20461;-76
2022/09/16 04:43:27;;;;;;;8.53;2.43;;;12.00;99.90;;;;;;5051656;28;20540;-75
2022/09/16 04:45:54;;;;;;;9.20;2.50;;;12.00;99.90;;;;;;5051681;28;20453;-75
2022/09/16 04:48:21;;;;;;;6.47;2.30;;;12.00;99.90;;;;;;5051927;28;20989;-77
2022/09/16 04:50:48;;;;;;;7.93;2.37;;;12.00;99.90;;;;;;5051864;28;20476;-76
2022/09/16 04:53:14;;;;;;;5.67;2.40;;;11.90;99.90;;;;;;5051512;28;20531;-75
2022/09/16 04:55:41;;;;;;;5.53;2.50;;;11.90;99.90;;;;;;5051474;28;20506;-75
2022/09/16 04:58:09;;;;;;;5.20;2.60;;;11.90;99.90;;;;;;5051957;28;20493;-75
2022/09/16 05:00:36;;;;;;;2.97;2.33;;;11.90;99.90;;;;;;5051767;28;20448;-77
2022/09/16 05:03:03;;;;;;;8.30;2.43;;;11.90;99.90;;;;;;5051762;28;20479;-75
2022/09/16 05:05:30;;;;;;;3.60;2.03;;;11.90;99.90;;;;;;5051096;28;20944;-75
2022/09/16 05:07:56;;;;;;;7.50;2.70;;;11.80;99.90;;;;;;5051670;28;20463;-76
2022/09/16 05:10:23;;;;;;;5.03;2.73;;;11.80;99.90;;;;;;5051215;28;20476;-75
2022/09/16 05:12:51;;;;;;;7.00;3.00;;;11.80;99.90;;;;;;5051447;28;20449;-75
2022/09/16 05:15:20;;;;;;;5.13;2.87;;;11.80;99.90;;;;;;5051086;28;20995;-75
2022/09/16 05:17:46;;;;;;;4.97;2.87;;;11.80;99.90;;;;;;5051536;28;20449;-75
2022/09/16 05:20:14;;;;;;;7.80;2.70;;;11.70;99.90;;;;;;5050980;28;20450;-75
2022/09/16 05:22:41;;;;;;;13.53;2.57;;;11.70;99.90;;;;;;5051609;28;20463;-75
2022/09/16 05:25:08;;;;;;;5.97;2.70;;;11.70;99.90;;;;;;5051531;28;20508;-77
2022/09/16 05:27:35;;;;;;;9.03;2.80;;;11.70;99.90;;;;;;5047693;28;20949;-75
2022/09/16 05:30:02;;;;;;;4.43;2.63;;;11.70;99.90;;;;;;5051220;28;20488;-75
2022/09/16 05:32:30;;;;;;;5.90;2.40;;;11.70;99.90;;;;;;5051220;28;20541;-76
2022/09/16 05:34:57;;;;;;;3.70;2.80;;;11.80;99.90;;;;;;5050307;28;21007;-74
2022/09/16 05:37:23;;;;;;;7.27;2.77;;;11.90;99.90;;;;;;5050837;28;21053;-73
2022/09/16 05:39:50;;;;;;;10.47;2.80;;;12.00;99.90;;;;;;5051553;28;20507;-73
2022/09/16 05:42:16;;;;;;;3.50;2.30;;;12.30;99.90;;;;;;5051158;28;20463;-74
2022/09/16 05:44:43;;;;;;;6.33;2.50;;;12.50;99.90;;;;;;5043296;28;20473;-74
2022/09/16 05:47:10;;;;;;;5.70;3.20;;;12.60;99.90;;;;;;5049959;28;20548;-73
2022/09/16 05:49:38;;;;;;;6.27;2.80;;;12.80;99.90;;;;;;5050523;28;20461;-74
2022/09/16 05:52:05;;;;;;;8.93;2.93;;;12.90;99.90;;;;;;5051226;28;20455;-74
2022/09/16 05:54:31;;;;;;;7.83;3.40;;;13.10;99.90;;;;;;5051116;28;20476;-74
2022/09/16 05:56:58;;;;;;;6.33;3.50;;;13.50;99.90;;;;;;5050761;28;20462;-74
2022/09/16 05:59:25;;;;;;;8.93;3.70;;;13.80;99.90;;;;;;5050868;28;20452;-74
2022/09/16 06:01:52;;;;;;;7.97;4.00;;;14.10;99.90;;;;;;5050555;28;21010;-75
2022/09/16 06:04:18;;;;;;;7.53;3.47;;;14.30;99.90;;;;;;5050565;28;21011;-76
2022/09/16 06:06:46;;;;;;;7.33;3.63;;;14.60;99.90;;;;;;5050001;28;20449;-74
2022/09/16 06:09:15;;;;;;;5.23;3.40;;;14.60;99.90;;;;;;5050674;28;20453;-74
2022/09/16 06:11:44;;;;;;;7.27;3.40;;;14.60;99.90;;;;;;5050586;28;21000;-74
2022/09/16 06:14:11;;;;;;;9.07;3.57;;;14.30;99.90;;;;;;5050722;28;20989;-74
2022/09/16 06:16:39;;;;;;;8.87;3.77;;;14.00;99.90;;;;;;5049992;28;20460;-74
2022/09/16 06:19:09;;;;;;;7.03;4.00;;;13.70;99.90;;;;;;5050458;28;20458;-75
2022/09/16 06:21:36;;;;;;;8.23;4.10;;;13.40;99.90;;;;;;5049985;28;20463;-74
2022/09/16 06:24:07;;;;;;;9.87;3.33;;;13.30;99.90;;;;;;5050902;28;20535;-74
2022/09/16 06:26:35;;;;;;;4.80;3.30;;;13.10;99.90;;;;;;5050329;28;20457;-74
2022/09/16 06:29:01;;;;;;;13.63;3.90;;;13.10;99.90;;;;;;5051586;28;20508;-74
2022/09/16 06:31:29;;;;;;;15.10;4.00;;;13.10;99.90;;;;;;5050962;28;20490;-74
2022/09/16 06:33:57;;;;;;;8.37;3.90;;;13.30;99.90;;;;;;5050807;28;20476;-74
2022/09/16 06:36:28;;;;;;;8.80;4.10;;;13.90;99.90;;;;;;5050451;28;20454;-74
2022/09/16 06:38:55;;;;;;;4.57;3.47;;;14.70;99.90;;;;;;5050393;28;20968;-74
2022/09/16 06:41:24;;;;;;;8.40;3.40;;;15.40;99.90;;;;;;5049701;28;20445;-74
2022/09/16 06:43:50;;;;;;;6.93;3.20;;;15.70;99.90;;;;;;5050462;28;20466;-74
2022/09/16 06:46:20;;;;;;;6.77;3.07;;;16.20;99.90;;;;;;5049648;28;20465;-74
2022/09/16 06:48:50;;;;;;;12.43;5.03;;;16.90;99.90;;;;;;5050242;28;20461;-75
2022/09/16 06:51:18;;;;;;;5.97;2.40;;;17.50;99.90;;;;;;5050240;28;20530;-75
2022/09/16 06:53:46;;;;;;;5.73;3.03;;;17.60;99.90;;;;;;5050367;28;20473;-75
2022/09/16 06:56:14;;;;;;;7.00;3.70;;;17.40;99.90;;;;;;5053647;28;20531;-75
2022/09/16 06:58:46;;;;;;;14.07;4.73;;;16.80;99.90;;;;;;5054079;28;20871;-74
2022/09/16 07:01:15;;;;;;;10.83;3.30;;;16.10;99.90;;;;;;5054372;28;20453;-75
2022/09/16 07:03:44;;;;;;;5.90;3.33;;;15.50;99.90;;;;;;5053930;28;20496;-75
2022/09/16 07:06:12;;;;;;;7.70;3.60;;;15.10;99.90;;;;;;5046588;28;20541;-75
2022/09/16 07:08:40;;;;;;;5.33;3.03;;;14.70;99.90;;;;;;5053672;28;20459;-76
2022/09/16 07:11:08;;;;;;;4.23;3.20;;;14.50;99.90;;;;;;5045790;28;20456;-75
2022/09/16 07:13:35;;;;;;;9.40;4.17;;;14.70;99.90;;;;;;5053819;28;20835;-75
2022/09/16 07:16:06;;;;;;;4.40;3.50;;;15.20;99.90;;;;;;5053386;28;20519;-75
2022/09/16 07:18:33;;;;;;;6.13;3.17;;;15.40;99.90;;;;;;5053050;28;20449;-74
2022/09/16 07:21:03;;;;;;;7.77;3.30;;;15.60;99.90;;;;;;5052633;28;20507;-74
2022/09/16 07:23:31;;;;;;;7.50;3.40;;;15.60;99.90;;;;;;5052809;28;20526;-74
2022/09/16 07:26:03;;;;;;;10.70;3.20;;;15.40;99.90;;;;;;5052711;28;20456;-76
2022/09/16 07:28:30;;;;;;;6.63;3.57;;;15.10;99.90;;;;;;5052789;28;20452;-74
2022/09/16 07:30:56;;;;;;;5.10;4.30;;;14.70;99.90;;;;;;5052627;28;20543;-74
2022/09/16 07:33:24;;;;;;;4.47;3.20;;;14.50;99.90;;;;;;5052072;28;20471;-74
2022/09/16 07:35:51;;;;;;;12.07;3.60;;;14.30;99.90;;;;;;5051935;28;20527;-75
2022/09/16 07:38:18;;;;;;;11.17;3.80;;;14.20;99.90;;;;;;5052850;28;20454;-76
2022/09/16 07:40:44;;;;;;;7.70;3.30;;;14.20;99.90;;;;;;5052710;28;20468;-75
2022/09/16 07:43:11;;;;;;;11.07;3.90;;;14.20;99.90;;;;;;5052071;28;21061;-74
2022/09/16 07:45:37;;;;;;;9.40;3.47;;;14.10;99.90;;;;;;5052457;28;20859;-74
2022/09/16 07:48:04;;;;;;;4.80;3.40;;;14.30;99.90;;;;;;5052141;28;20452;-74
2022/09/16 07:50:32;;;;;;;4.27;3.10;;;14.70;99.90;;;;;;5052391;28;20550;-74
2022/09/16 07:52:59;;;;;;;10.60;3.57;;;15.30;99.90;;;;;;5051527;28;20473;-74
2022/09/16 07:55:26;;;;;;;15.70;3.50;;;15.60;99.90;;;;;;5051940;28;20503;-75
2022/09/16 07:57:52;;;;;;;7.53;4.70;;;15.60;99.90;;;;;;5052246;28;20545;-74
2022/09/16 08:00:19;;;;;;;7.83;3.80;;;15.70;99.90;;;;;;5052308;28;20445;-74
2022/09/16 08:02:46;;;;;;;5.77;3.50;;;15.70;99.90;;;;;;5052367;28;20449;-74
2022/09/16 08:05:14;;;;;;;5.87;3.33;;;15.90;99.90;;;;;;5051966;28;20516;-75
2022/09/16 08:07:42;;;;;;;12.00;3.83;;;15.80;99.90;;;;;;5052504;28;20544;-75
2022/09/16 08:10:09;;;;;;;6.00;3.60;;;16.20;99.90;;;;;;5051863;28;20450;-77
2022/09/16 08:12:36;;;;;;;8.20;4.30;;;16.70;99.90;;;;;;5052628;28;20453;-75
2022/09/16 08:15:03;;;;;;;7.53;3.70;;;16.70;99.90;;;;;;5052726;28;20435;-75
2022/09/16 08:17:29;;;;;;;8.80;3.97;;;16.30;99.90;;;;;;5051914;28;20861;-76
2022/09/16 08:19:56;;;;;;;9.20;3.40;;;15.90;99.90;;;;;;5052266;28;20458;-76
2022/09/16 08:22:24;;;;;;;11.03;3.67;;;15.60;99.90;;;;;;5051997;28;20428;-76
2022/09/16 08:24:52;;;;;;;6.70;3.30;;;15.50;99.90;;;;;;5052205;28;21008;-76
2022/09/16 08:27:19;;;;;;;3.93;3.10;;;15.30;99.90;;;;;;5051992;28;20548;-75
2022/09/16 08:29:45;;;;;;;7.20;3.30;;;15.10;99.90;;;;;;5052304;28;20509;-75
2022/09/16 08:32:12;;;;;;;9.07;2.90;;;15.00;99.90;;;;;;5052000;28;21041;-76
2022/09/16 08:34:39;;;;;;;6.20;3.20;;;15.00;99.90;;;;;;5051724;28;20473;-75
2022/09/16 08:37:06;;;;;;;9.20;3.47;;;15.10;99.90;;;;;;5048320;28;20543;-75
2022/09/16 08:39:33;;;;;;;4.73;3.37;;;15.20;99.90;;;;;;5051897;28;20795;-77
2022/09/16 08:42:30;;;;;;;5.00;3.20;;;15.30;99.90;;;;;;5050331;28;20450;-75
2022/09/16 08:45:08;;;;;;;4.40;3.03;;;15.40;99.90;;;;;;5052130;28;20531;-76
2022/09/16 08:47:47;;;;;;;3.93;3.23;;;15.40;99.90;;;;;;5051516;28;20518;-77
2022/09/16 08:50:18;;;;;;;5.70;3.20;;;15.40;99.90;;;;;;5051381;28;20507;-75
2022/09/16 08:52:46;;;;;;;5.93;3.00;;;15.40;99.90;;;;;;5050057;28;20501;-75
2022/09/16 08:55:18;;;;;;;8.30;3.10;;;15.30;99.90;;;;;;5051337;28;20503;-75
2022/09/16 08:57:53;;;;;;;4.03;2.93;;;15.30;99.90;;;;;;5052098;28;20484;-76
2022/09/16 09:00:20;;;;;;;7.17;2.90;;;15.70;99.90;;;;;;5051703;28;20451;-77
2022/09/16 09:02:53;;;;;;;10.90;2.80;;;16.10;99.90;;;;;;5051425;28;20453;-76
2022/09/16 09:05:28;;;;;;;8.40;2.90;;;16.40;99.90;;;;;;5051235;28;20482;-75
2022/09/16 09:08:14;;;;;;;4.83;2.40;;;16.60;99.90;;;;;;5044515;28;20457;-76
2022/09/16 09:10:48;;;;;;;4.60;2.60;;;16.50;99.90;;;;;;5051055;28;20465;-75
2022/09/16 09:13:45;;;;;;;7.27;3.03;;;16.40;99.90;;;;;;5051089;28;20448;-75
2022/09/16 09:16:22;;;;;;;6.77;2.63;;;16.30;99.90;;;;;;5051195;28;20453;-74
2022/09/16 09:19:03;;;;;;;6.27;2.87;;;16.10;99.90;;;;;;5042911;28;20452;-75
2022/09/16 09:21:40;;;;;;;7.20;3.07;;;16.00;99.90;;;;;;5051039;28;20432;-71
2022/09/16 09:24:27;;;;;;;9.70;2.80;;;16.50;99.90;;;;;;5050872;28;20477;-71
2022/09/16 09:27:03;;;;;;;4.40;2.73;;;17.00;99.90;;;;;;5050454;28;20453;-72
2022/09/16 09:29:47;;;;;;;7.43;2.30;;;17.10;99.90;;;;;;5050674;28;20431;-73
2022/09/16 09:32:24;;;;;;;5.63;2.40;;;17.00;99.90;;;;;;5050482;28;20508;-73
2022/09/16 09:35:10;;;;;;;5.63;2.83;;;17.20;99.90;;;;;;5050650;28;20497;-73
2022/09/16 09:37:53;;;;;;;4.10;2.60;;;17.10;99.90;;;;;;5050347;28;20457;-73
2022/09/16 09:40:27;;;;;;;3.97;2.53;;;17.20;99.90;;;;;;5050453;28;20428;-72
2022/09/16 09:43:03;;;;;;;5.73;2.10;;;16.90;99.90;;;;;;5049865;28;20449;-72
2022/09/16 09:45:35;;;;;;;3.10;2.50;;;16.80;99.90;;;;;;5050127;28;20448;-72
2022/09/16 09:48:18;;;;;;;3.30;2.37;;;16.40;99.90;;;;;;5043060;28;20424;-73
2022/09/16 09:50:46;;;;;;;5.70;2.40;;;16.40;99.90;;;;;;5050321;28;20953;-73
2022/09/16 09:53:17;;;;;;;2.80;2.60;;;16.60;99.90;;;;;;5050323;28;20936;-73
2022/09/16 09:55:44;;;;;;;4.40;2.70;;;16.80;99.90;;;;;;5050373;28;20419;-72
2022/09/16 09:58:26;;;;;;;4.10;2.53;;;16.90;99.90;;;;;;5043853;28;20480;-72
2022/09/16 10:00:56;;;;;;;4.70;2.50;;;17.00;99.90;;;;;;5050133;28;20432;-72
2022/09/16 10:03:24;;;;;;;5.13;3.40;;;17.10;99.90;;;;;;5050145;28;20538;-72
2022/09/16 10:05:51;;;;;;;4.13;2.70;;;17.20;99.90;;;;;;5049816;28;20833;-73
2022/09/16 10:08:24;;;;;;;5.50;3.27;;;17.30;99.90;;;;;;5049524;28;20420;-72
2022/09/16 10:10:53;;;;;;;5.80;2.43;;;17.20;99.90;;;;;;5049825;28;20454;-72
2022/09/16 10:13:21;;;;;;;4.70;2.30;;;17.40;99.90;;;;;;5049671;28;20505;-72
2022/09/16 10:15:49;;;;;;;2.83;2.50;;;17.70;99.90;;;;;;5049379;28;20811;-72
2022/09/16 10:18:28;;;;;;;7.43;2.73;;;18.00;99.90;;;;;;5049921;28;20427;-73
2022/09/16 10:21:00;;;;;;;4.20;2.57;;;18.20;99.90;;;;;;5050002;28;20428;-72
2022/09/16 10:23:26;;;;;;;5.00;2.27;;;18.70;99.90;;;;;;5050125;28;21021;-72
2022/09/16 10:26:05;;;;;;;2.60;2.40;;;18.70;99.90;;;;;;5049973;28;20436;-72
2022/09/16 10:28:32;;;;;;;5.40;2.23;;;18.60;99.90;;;;;;5049742;28;20478;-72
2022/09/16 10:31:00;;;;;;;3.40;2.77;;;18.70;99.90;;;;;;5053375;28;20460;-72
2022/09/16 10:33:30;;;;;;;5.13;2.77;;;18.90;99.90;;;;;;5053860;28;21000;-72
2022/09/16 10:36:00;;;;;;;2.40;2.20;;;19.00;99.90;;;;;;5053651;28;20420;-72
2022/09/16 10:38:36;;;;;;;7.10;2.83;;;18.90;99.90;;;;;;5054109;28;20495;-72
2022/09/16 10:41:08;;;;;;;6.53;2.70;;;19.00;99.90;;;;;;5050929;28;20485;-76
2022/09/16 10:43:37;;;;;;;3.73;2.93;;;18.80;99.90;;;;;;5053853;28;20556;-72
2022/09/16 10:46:05;;;;;;;5.75;2.47;;;18.40;99.90;;;;;;5052910;28;20508;-76
2022/09/16 10:48:35;;;;;;;3.87;2.20;;;17.90;99.90;;;;;;5053807;28;20269;-76
2022/09/16 10:51:04;;;;;;;9.30;2.67;;;17.80;99.90;;;;;;5053785;28;20530;-75
2022/09/16 10:53:34;;;;;;;3.93;2.53;;;17.60;99.90;;;;;;5053787;28;20822;-76
2022/09/16 10:56:02;;;;;;;2.23;2.13;;;17.60;99.90;;;;;;5053818;28;20434;-76
2022/09/16 10:58:29;;;;;;;3.23;2.63;;;17.80;99.90;;;;;;5053812;28;20841;-75
2022/09/16 11:01:08;;;;;;;5.93;2.77;;;18.10;99.90;;;;;;5053699;28;20453;-76
2022/09/16 11:04:08;;;;;;;3.73;2.50;;;18.00;99.90;;;;;;5053803;28;20444;-77
2022/09/16 11:06:43;;;;;;;3.60;2.47;;;18.20;99.90;;;;;;5033814;28;20534;-75
2022/09/16 11:09:18;;;;;;;4.13;2.30;;;18.40;99.90;;;;;;5049337;28;20435;-77
2022/09/16 11:11:58;;;;;;;4.53;2.07;;;18.40;99.90;;;;;;5053812;28;20872;-77
2022/09/16 11:14:37;;;;;;;3.13;2.20;;;18.50;99.90;;;;;;5053442;28;20431;-76
2022/09/16 11:17:22;;;;;;;4.50;1.90;;;18.90;99.90;;;;;;5053172;28;20870;-75
2022/09/16 11:20:05;;;;;;;2.17;1.97;;;19.50;99.90;;;;;;5053171;28;20453;-75
2022/09/16 11:22:42;;;;;;;2.20;2.00;;;19.90;99.90;;;;;;5053177;28;20420;-76
2022/09/16 11:25:36;;;;;;;2.63;2.23;;;19.60;99.90;;;;;;5052656;28;20558;-75
2022/09/16 11:28:20;;;;;;;4.10;2.40;;;19.20;99.90;;;;;;5052726;28;20468;-75
2022/09/16 11:30:53;;;;;;;2.40;2.20;;;18.90;99.90;;;;;;5046731;28;20507;-75
2022/09/16 11:33:28;;;;;;;1.70;1.60;;;18.90;99.90;;;;;;5052308;28;21008;-75
2022/09/16 11:36:23;;;;;;;2.13;1.90;;;19.10;99.90;;;;;;5052090;28;20476;-75
2022/09/16 11:39:02;;;;;;;2.87;2.03;;;19.30;99.90;;;;;;5052850;28;20431;-75
2022/09/16 11:41:35;;;;;;;2.10;1.97;;;19.10;99.90;;;;;;5051512;28;20432;-75
2022/09/16 11:44:23;;;;;;;1.60;1.50;;;19.20;99.90;;;;;;5052090;28;20448;-75
2022/09/16 11:47:01;;;;;;;1.90;1.70;;;19.50;99.90;;;;;;5046106;28;20862;-76
2022/09/16 11:49:44;;;;;;;2.40;1.77;;;20.10;99.90;;;;;;5052231;28;20453;-76
2022/09/16 11:52:30;;;;;;;3.03;1.73;;;20.60;99.90;;;;;;5052202;28;20824;-75
2022/09/16 11:55:14;;;;;;;2.80;1.67;;;20.70;99.90;;;;;;5052013;28;20481;-76
2022/09/16 11:57:43;;;;;;;2.27;1.70;;;20.90;99.90;;;;;;5052436;28;20458;-75
2022/09/16 12:00:15;;;;;;;3.53;1.87;;;21.00;99.90;;;;;;5047421;28;20516;-75
2022/09/16 12:02:52;;;;;;;3.20;2.10;;;20.40;99.90;;;;;;5052000;28;20465;-71
2022/09/16 12:05:23;;;;;;;2.90;1.80;;;19.70;99.90;;;;;;5050618;28;20449;-71
2022/09/16 12:07:56;;;;;;;2.70;1.73;;;19.50;99.90;;;;;;5046714;28;20824;-71
2022/09/16 12:10:27;;;;;;;1.93;1.40;;;19.30;99.90;;;;;;5051147;28;20455;-71
2022/09/16 12:12:58;;;;;;;5.73;1.83;;;19.00;99.90;;;;;;5044323;28;20810;-70
2022/09/16 12:15:29;;;;;;;1.70;1.53;;;18.60;99.90;;;;;;5051563;28;20430;-71
2022/09/16 12:18:12;;;;;;;1.93;1.80;;;18.50;99.90;;;;;;5051832;28;20966;-71
2022/09/16 12:20:43;;;;;;;5.43;2.00;;;18.90;99.90;;;;;;5051762;28;20497;-72
2022/09/16 12:23:17;;;;;;;1.60;1.40;;;19.60;99.90;;;;;;5051613;28;20440;-71
2022/09/16 12:25:51;;;;;;;2.07;1.60;;;20.30;99.90;;;;;;5050930;28;20564;-71
2022/09/16 12:28:26;;;;;;;3.00;1.27;;;20.90;99.90;;;;;;5047080;28;20957;-71
2022/09/16 12:31:03;;;;;;;5.10;1.20;;;21.20;99.90;;;;;;5048656;28;20445;-71
2022/09/16 12:33:35;;;;;;;1.93;1.30;;;21.60;99.90;;;;;;5051241;28;20546;-71
2022/09/16 12:36:06;;;;;;;4.80;1.50;;;21.60;99.90;;;;;;5051724;28;20941;-71
2022/09/16 12:38:35;;;;;;;1.87;1.27;;;21.50;99.90;;;;;;5052330;28;20452;-71
2022/09/16 12:41:29;;;;;;;2.70;1.70;;;21.70;99.90;;;;;;5050405;28;20465;-71
2022/09/16 12:44:14;;;;;;;3.73;1.70;;;21.90;99.90;;;;;;5051078;28;20468;-71
2022/09/16 12:47:05;;;;;;;3.80;1.40;;;21.30;99.90;;;;;;5050155;28;20507;-70
2022/09/16 12:50:10;;;;;;;1.53;1.33;;;21.20;99.90;;;;;;5050562;28;21011;-71
2022/09/16 12:53:10;;;;;;;2.50;1.53;;;21.50;99.90;;;;;;5045500;28;21112;-71
2022/09/16 12:55:56;;;;;;;2.00;1.30;;;21.30;99.90;;;;;;5050704;28;20507;-70
2022/09/16 12:58:39;;;;;;;4.87;1.60;;;21.20;99.90;;;;;;5050316;28;21116;-77
2022/09/16 13:01:16;;;;;;;3.57;1.30;;;21.10;99.90;;;;;;5051048;28;20453;-76
2022/09/16 13:03:47;;;;;;;3.50;1.40;;;21.50;99.90;;;;;;5050876;28;20469;-75
2022/09/16 13:06:23;;;;;;;2.30;1.20;;;21.10;99.90;;;;;;5050648;28;21031;-76
2022/09/16 13:08:50;;;;;;;2.20;1.47;;;20.40;99.90;;;;;;5050318;28;21060;-77
2022/09/16 13:11:22;;;;;;;5.87;1.53;;;20.50;99.90;;;;;;5046727;28;20453;-76
2022/09/16 13:13:51;;;;;;;1.73;1.63;;;20.60;99.90;;;;;;5050644;28;20538;-76
2022/09/16 13:16:28;;;;;;;4.23;1.30;;;20.20;99.90;;;;;;5050471;28;20479;-76